Strona główna
METAR-TAF:

METAR-TAF

Lotnisko :

Port lotniczy Mediolan-Linate

Mediolan, Włochy

Szerokość geograficzna: 45-26N, Długość geograficzna: 009-17E, wysokość: 107 m

Aktualna obserwacja pogody

Raport powstał 35 minut temu, godzina 05:20 UTC
Wiatr 1 kt z kierunków zmiennych
Temperatura 17°C
Wilgotność 63%
Ciśnienie 1026 hPa
Widzialność 10 km lub więcej
Brak chmur poniżej 1500 m i brak chmur cumulonimbus

METAR: LIML 280520Z VRB01KT CAVOK 17/10 Q1026 NOSIG

czas: 07:55 (05:55 UTC)

Prognoza

Raport powstał 55 minut temu, godzina 05:00 UTC
Prognoza ważna od 28 godzina 06 UTC do 29 godzina 06 UTC
Wiatr 5 kt z kierunków zmiennych
Widzialność 10 km lub więcej
Rozproszone chmury na wysokości 5000 ft

TAF: LIML 280500Z 2806/2906 VRB05KT 9999 SCT050

Obserwacja i prognoza pogody dla ponad 4000 lotnisk (raport METAR i TAF).

Dostępne stacje oznaczono żółtymi i czerwonymi punktami na mapie.

Najedź kursorem aby zobaczyć nazwę stacji.

Kliknij aby zobaczyć obserwacje i prognozy pogody.

Aby zmienić mapę: kliknij na zielony przycisk z czarnym krzyżykiem, aby powiększyć; na zielony przycisk z myślnikiem, aby pomniejszyć; na zielone strzałki, aby przejść do map sąsiednich.


METAR-TAF: